Time;durP1;ratioP1;P1;durP2;ratioP2;P2;SDS_P1;SDS_P2;PMS_P1;PMS_P2;Temp;Humidity;BMP_temperature;BMP_pressure;BME280_temperature;BME280_humidity;BME280_pressure;Samples;Min_cycle;Max_cycle;Signal;HPM_P1;HPM_P2
2023/03/05 00:01:21;;;;;;;;;;;3.50;99.90;;;;;;5054903;28;19920;-75
2023/03/05 00:03:47;;;;;;;;;;;3.50;99.90;;;;;;5053825;28;19924;-74
2023/03/05 00:06:13;;;;;;;;;;;3.40;99.90;;;;;;5054437;28;19999;-74
2023/03/05 00:08:38;;;;;;;;;;;3.50;99.90;;;;;;5071555;28;20012;-75
2023/03/05 00:11:06;;;;;;;;;;;3.40;99.90;;;;;;5072305;28;20030;-74
2023/03/05 00:13:32;;;;;;;;;;;3.40;99.90;;;;;;5053336;28;19920;-77
2023/03/05 00:15:57;;;;;;;;;;;3.40;99.90;;;;;;5048577;28;19964;-75
2023/03/05 00:18:23;;;;;;;;;;;3.40;99.90;;;;;;5052315;28;19959;-74
2023/03/05 00:20:49;;;;;;;;;;;3.40;99.90;;;;;;5066785;28;19920;-74
2023/03/05 00:23:15;;;;;;;;;;;3.40;99.90;;;;;;5047321;28;20402;-75
2023/03/05 00:25:41;;;;;;;;;;;3.40;99.90;;;;;;5068685;28;19920;-74
2023/03/05 00:28:06;;;;;;;;;;;3.40;99.90;;;;;;5050813;28;19932;-73
2023/03/05 00:30:33;;;;;;;;;;;3.40;99.90;;;;;;5066781;28;19920;-67
2023/03/05 00:33:17;;;;;;;;;;;3.40;99.90;;;;;;5053687;28;19923;-69
2023/03/05 00:35:43;;;;;;;;;;;3.40;99.90;;;;;;5070715;28;19921;-69
2023/03/05 00:38:09;;;;;;;;;;;3.40;99.90;;;;;;5069724;28;20112;-67
2023/03/05 00:40:36;;;;;;;;;;;3.40;99.90;;;;;;5069397;28;20367;-74
2023/03/05 00:43:02;;;;;;;;;;;3.30;99.90;;;;;;5068453;28;19928;-76
2023/03/05 00:45:31;;;;;;;;;;;3.40;99.90;;;;;;5066294;28;19931;-72
2023/03/05 00:47:56;;;;;;;;;;;3.30;99.90;;;;;;5071710;28;19920;-74
2023/03/05 00:50:23;;;;;;;;;;;3.30;99.90;;;;;;5051977;28;20015;-73
2023/03/05 00:52:48;;;;;;;;;;;3.30;99.90;;;;;;5073079;28;21412;-73
2023/03/05 00:55:14;;;;;;;;;;;3.30;99.90;;;;;;5073907;28;20411;-73
2023/03/05 00:57:40;;;;;;;;;;;3.30;99.90;;;;;;5053042;28;19928;-73
2023/03/05 01:00:06;;;;;;;;;;;3.20;99.90;;;;;;5066288;28;19952;-73
2023/03/05 01:02:32;;;;;;;;;;;3.30;99.90;;;;;;5069237;28;19974;-74
2023/03/05 01:07:26;;;;;;;;;;;3.20;99.90;;;;;;5050205;28;19958;-69
2023/03/05 01:09:52;;;;;;;;;;;3.20;99.90;;;;;;5064179;28;20366;-68
2023/03/05 01:12:17;;;;;;;;;;;3.10;99.90;;;;;;5080124;28;19928;-68
2023/03/05 01:14:43;;;;;;;;;;;3.10;99.90;;;;;;5053147;28;20370;-68
2023/03/05 01:17:09;;;;;;;;;;;3.10;99.90;;;;;;5081062;28;20216;-69
2023/03/05 01:19:34;;;;;;;;;;;3.10;99.90;;;;;;5064408;28;19924;-69
2023/03/05 01:22:00;;;;;;;;;;;3.00;99.90;;;;;;5064860;28;19923;-69
2023/03/05 01:24:26;;;;;;;;;;;3.10;99.90;;;;;;5064253;28;20011;-69
2023/03/05 01:26:51;;;;;;;;;;;3.00;99.90;;;;;;5071385;28;20410;-68
2023/03/05 01:29:17;;;;;;;;;;;3.00;99.90;;;;;;5083506;28;20003;-69
2023/03/05 01:31:43;;;;;;;;;;;3.00;99.90;;;;;;5087123;28;20456;-69
2023/03/05 01:34:08;;;;;;;;;;;3.00;99.90;;;;;;5064203;28;19953;-69
2023/03/05 01:36:34;;;;;;;;;;;3.10;99.90;;;;;;5084169;28;19997;-68
2023/03/05 01:39:01;;;;;;;;;;;3.10;99.90;;;;;;5084941;28;19955;-69
2023/03/05 01:41:27;;;;;;;;;;;3.10;99.90;;;;;;5083932;28;20043;-69
2023/03/05 01:43:52;;;;;;;;;;;3.10;99.90;;;;;;5066001;28;20030;-69
2023/03/05 01:46:22;;;;;;;;;;;3.20;99.90;;;;;;5083564;28;20267;-69
2023/03/05 01:48:51;;;;;;;;;;;3.20;99.90;;;;;;5068899;28;19924;-69
2023/03/05 01:51:17;;;;;;;;;;;3.30;99.90;;;;;;5081652;28;19928;-69
2023/03/05 01:53:43;;;;;;;;;;;3.20;99.90;;;;;;5083468;28;19935;-69
2023/03/05 01:56:09;;;;;;;;;;;3.30;99.90;;;;;;5066994;28;19927;-70
2023/03/05 01:58:35;;;;;;;;;;;3.20;99.90;;;;;;5086836;28;19973;-70
2023/03/05 02:01:00;;;;;;;;;;;3.30;99.90;;;;;;5084356;28;20471;-70
2023/03/05 02:03:26;;;;;;;;;;;3.30;99.90;;;;;;5080523;28;19920;-70
2023/03/05 02:05:52;;;;;;;;;;;3.20;99.90;;;;;;5054258;28;20478;-70
2023/03/05 02:08:19;;;;;;;;;;;3.20;99.90;;;;;;5047477;28;19920;-69
2023/03/05 02:10:46;;;;;;;;;;;3.20;99.90;;;;;;5073288;28;19932;-69
2023/03/05 02:13:13;;;;;;;;;;;3.20;99.90;;;;;;5053578;28;20014;-69
2023/03/05 02:15:39;;;;;;;;;;;3.20;99.90;;;;;;5053084;28;19928;-69
2023/03/05 02:18:05;;;;;;;;;;;3.10;99.90;;;;;;5072951;28;19924;-69
2023/03/05 02:20:42;;;;;;;;;;;3.10;99.90;;;;;;5059899;28;19935;-69
2023/03/05 02:23:07;;;;;;;;;;;3.10;99.90;;;;;;5070712;28;20286;-70
2023/03/05 02:25:33;;;;;;;;;;;3.10;99.90;;;;;;5055371;28;19920;-70
2023/03/05 02:28:02;;;;;;;;;;;3.00;99.90;;;;;;5070471;28;20366;-69
2023/03/05 02:30:28;;;;;;;;;;;3.00;99.90;;;;;;5070206;28;19928;-69
2023/03/05 02:32:53;;;;;;;;;;;2.90;99.90;;;;;;5071889;28;19985;-69
2023/03/05 02:35:19;;;;;;;;;;;2.90;99.90;;;;;;5071228;28;20362;-70
2023/03/05 02:37:44;;;;;;;;;;;2.80;99.90;;;;;;5068763;28;20908;-69
2023/03/05 02:40:11;;;;;;;;;;;2.80;99.90;;;;;;5070887;28;20294;-69
2023/03/05 02:42:36;;;;;;;;;;;2.80;99.90;;;;;;5070403;28;20389;-69
2023/03/05 02:45:02;;;;;;;;;;;2.90;99.90;;;;;;5070468;28;19928;-69
2023/03/05 02:47:28;;;;;;;;;;;2.90;99.90;;;;;;5071520;28;19920;-69
2023/03/05 02:49:53;;;;;;;;;;;2.90;99.90;;;;;;5074766;28;19932;-68
2023/03/05 02:52:19;;;;;;;;;;;2.90;99.90;;;;;;5070838;28;19928;-70
2023/03/05 02:54:45;;;;;;;;;;;2.90;99.90;;;;;;5072831;28;20382;-69
2023/03/05 02:57:10;;;;;;;;;;;2.80;99.90;;;;;;5054200;28;19955;-70
2023/03/05 02:59:36;;;;;;;;;;;2.80;99.90;;;;;;5071441;28;20388;-70
2023/03/05 03:02:01;;;;;;;;;;;2.80;99.90;;;;;;5054224;28;19920;-70
2023/03/05 03:04:27;;;;;;;;;;;2.90;99.90;;;;;;5044886;28;19932;-70
2023/03/05 03:06:53;;;;;;;;;;;2.90;99.90;;;;;;5039109;28;19920;-69
2023/03/05 03:09:19;;;;;;;;;;;2.90;99.90;;;;;;5072844;28;20448;-69
2023/03/05 03:11:44;;;;;;;;;;;2.90;99.90;;;;;;5058916;28;20035;-70
2023/03/05 03:14:10;;;;;;;;;;;3.00;99.90;;;;;;5053911;28;19923;-70
2023/03/05 03:16:36;;;;;;;;;;;3.00;99.90;;;;;;5054808;28;20015;-69
2023/03/05 03:19:01;;;;;;;;;;;3.10;99.90;;;;;;5056723;28;19932;-69
2023/03/05 03:21:27;;;;;;;;;;;3.00;99.90;;;;;;5055117;28;19927;-70
2023/03/05 03:23:53;;;;;;;;;;;3.00;99.90;;;;;;5076357;28;19935;-70
2023/03/05 03:26:19;;;;;;;;;;;3.00;99.90;;;;;;5059544;28;19920;-70
2023/03/05 03:28:44;;;;;;;;;;;3.00;99.90;;;;;;5058353;28;20295;-69
2023/03/05 03:31:10;;;;;;;;;;;2.90;99.90;;;;;;5077453;28;19920;-70
2023/03/05 03:33:36;;;;;;;;;;;2.80;99.90;;;;;;5058729;28;19927;-69
2023/03/05 03:36:02;;;;;;;;;;;2.80;99.90;;;;;;5075019;28;19916;-70
2023/03/05 03:38:28;;;;;;;;;;;2.80;99.90;;;;;;5056611;28;19927;-70
2023/03/05 03:40:53;;;;;;;;;;;2.80;99.90;;;;;;5075376;28;19923;-70
2023/03/05 03:43:19;;;;;;;;;;;2.70;99.90;;;;;;5079186;28;19920;-70
2023/03/05 03:45:45;;;;;;;;;;;2.60;99.90;;;;;;5058330;28;19935;-69
2023/03/05 03:48:10;;;;;;;;;;;2.70;99.90;;;;;;5052943;28;19954;-69
2023/03/05 03:50:39;;;;;;;;;;;2.70;99.90;;;;;;5058394;28;20012;-70
2023/03/05 03:53:05;;;;;;;;;;;2.60;99.90;;;;;;5076524;28;20406;-69
2023/03/05 03:55:31;;;;;;;;;;;2.60;99.90;;;;;;5056063;28;20358;-69
2023/03/05 03:57:56;;;;;;;;;;;2.60;99.90;;;;;;5076165;28;19931;-69
2023/03/05 04:00:22;;;;;;;;;;;2.60;99.90;;;;;;5075606;28;19966;-70
2023/03/05 04:02:48;;;;;;;;;;;2.60;99.90;;;;;;5054829;28;19931;-69
2023/03/05 04:05:16;;;;;;;;;;;2.60;99.90;;;;;;5073905;28;19920;-70
2023/03/05 04:07:41;;;;;;;;;;;2.70;99.90;;;;;;5075032;28;19928;-70
2023/03/05 04:10:07;;;;;;;;;;;2.80;99.90;;;;;;5055029;28;19920;-69
2023/03/05 04:12:33;;;;;;;;;;;2.80;99.90;;;;;;5073279;28;19920;-70
2023/03/05 04:14:58;;;;;;;;;;;2.70;99.90;;;;;;5055842;28;19928;-70
2023/03/05 04:17:24;;;;;;;;;;;2.70;99.90;;;;;;5054438;28;20050;-70
2023/03/05 04:19:49;;;;;;;;;;;2.70;99.90;;;;;;5056682;28;20440;-70
2023/03/05 04:22:15;;;;;;;;;;;2.80;99.90;;;;;;5073562;28;19927;-70
2023/03/05 04:24:41;;;;;;;;;;;2.70;99.90;;;;;;5071467;28;19952;-70
2023/03/05 04:27:07;;;;;;;;;;;2.80;99.90;;;;;;5053075;28;20007;-70
2023/03/05 04:29:32;;;;;;;;;;;2.70;99.90;;;;;;5038814;28;19928;-70
2023/03/05 04:31:58;;;;;;;;;;;2.70;99.90;;;;;;5073516;28;19920;-70
2023/03/05 04:34:24;;;;;;;;;;;2.80;99.90;;;;;;5057882;28;20498;-70
2023/03/05 04:36:49;;;;;;;;;;;2.70;99.90;;;;;;5073095;28;19920;-70
2023/03/05 04:39:15;;;;;;;;;;;2.70;99.90;;;;;;5072010;28;19948;-70
2023/03/05 04:41:41;;;;;;;;;;;2.70;99.90;;;;;;5073111;28;19927;-70
2023/03/05 04:44:06;;;;;;;;;;;2.60;99.90;;;;;;5073517;28;19985;-69
2023/03/05 04:46:32;;;;;;;;;;;2.60;99.90;;;;;;5386603;22;19926;-78
2023/03/05 04:48:59;;;;;;;;;;;2.60;99.90;;;;;;5021307;28;19920;-78
2023/03/05 04:51:25;;;;;;;;;;;2.60;99.90;;;;;;5033794;28;20022;-78
2023/03/05 04:53:50;;;;;;;;;;;2.60;99.90;;;;;;5033530;28;20361;-78
2023/03/05 04:56:16;;;;;;;;;;;2.60;99.90;;;;;;5035638;28;20031;-78
2023/03/05 04:58:42;;;;;;;;;;;2.60;99.90;;;;;;5047027;28;19924;-78
2023/03/05 05:01:07;;;;;;;;;;;2.60;99.90;;;;;;5022032;28;19928;-77
2023/03/05 05:03:33;;;;;;;;;;;2.60;99.90;;;;;;5043142;28;19921;-78
2023/03/05 05:06:01;;;;;;;;;;;2.60;99.90;;;;;;5020988;28;19925;-78
2023/03/05 05:08:27;;;;;;;;;;;2.60;99.90;;;;;;5043580;28;19928;-78
2023/03/05 05:11:03;;;;;;;;;;;2.60;99.90;;;;;;5034311;28;19925;-78
2023/03/05 05:13:29;;;;;;;;;;;2.60;99.90;;;;;;5046291;28;20011;-79
2023/03/05 05:15:55;;;;;;;;;;;2.60;99.90;;;;;;5036122;28;19975;-78
2023/03/05 05:18:21;;;;;;;;;;;2.70;99.90;;;;;;5029804;28;19933;-78
2023/03/05 05:20:47;;;;;;;;;;;2.70;99.90;;;;;;5022594;28;19928;-78
2023/03/05 05:23:13;;;;;;;;;;;2.70;99.90;;;;;;5035213;28;19964;-78
2023/03/05 05:25:38;;;;;;;;;;;2.70;99.90;;;;;;5037752;28;20016;-78
2023/03/05 05:28:04;;;;;;;;;;;2.70;99.90;;;;;;5030084;28;19948;-78
2023/03/05 05:30:30;;;;;;;;;;;2.60;99.90;;;;;;5037867;28;19924;-78
2023/03/05 05:32:55;;;;;;;;;;;2.70;99.90;;;;;;5038771;28;19925;-78
2023/03/05 05:35:21;;;;;;;;;;;2.70;99.90;;;;;;5023857;28;20261;-78
2023/03/05 05:37:46;;;;;;;;;;;2.60;99.90;;;;;;5034176;28;20292;-78
2023/03/05 05:40:12;;;;;;;;;;;2.60;99.90;;;;;;5026234;28;19921;-78
2023/03/05 05:42:38;;;;;;;;;;;2.70;99.90;;;;;;5011026;28;20383;-78
2023/03/05 05:45:03;;;;;;;;;;;2.70;99.90;;;;;;5026516;28;19929;-78
2023/03/05 05:47:29;;;;;;;;;;;2.60;99.90;;;;;;5039291;28;19927;-78
2023/03/05 05:49:55;;;;;;;;;;;2.60;99.90;;;;;;5040310;28;19940;-78
2023/03/05 05:52:20;;;;;;;;;;;2.60;99.90;;;;;;5044345;28;20022;-78
2023/03/05 05:54:46;;;;;;;;;;;2.60;99.90;;;;;;5042474;28;19920;-78
2023/03/05 05:57:12;;;;;;;;;;;2.60;99.90;;;;;;5026430;28;19929;-78
2023/03/05 05:59:37;;;;;;;;;;;2.60;99.90;;;;;;5044118;28;20019;-78
2023/03/05 06:02:03;;;;;;;;;;;2.50;99.90;;;;;;5041052;28;19929;-77
2023/03/05 06:04:29;;;;;;;;;;;2.50;99.90;;;;;;5041516;28;20478;-78
2023/03/05 06:06:55;;;;;;;;;;;2.40;99.90;;;;;;5042346;28;19928;-77
2023/03/05 06:09:20;;;;;;;;;;;2.50;99.90;;;;;;5043711;28;19928;-77
2023/03/05 06:11:46;;;;;;;;;;;2.40;99.90;;;;;;5042965;28;19920;-78
2023/03/05 06:14:12;;;;;;;;;;;2.40;99.90;;;;;;5044256;28;20015;-77
2023/03/05 06:16:38;;;;;;;;;;;2.40;99.90;;;;;;5043811;28;19921;-78
2023/03/05 06:19:03;;;;;;;;;;;2.40;99.90;;;;;;5041765;28;19946;-76
2023/03/05 06:21:29;;;;;;;;;;;2.50;99.90;;;;;;5045828;28;19975;-77
2023/03/05 06:23:57;;;;;;;;;;;2.40;99.90;;;;;;5043668;28;19943;-77
2023/03/05 06:26:23;;;;;;;;;;;2.40;99.90;;;;;;5040590;28;19965;-77
2023/03/05 06:28:49;;;;;;;;;;;2.40;99.90;;;;;;5045196;28;19939;-77
2023/03/05 06:31:16;;;;;;;;;;;2.30;99.90;;;;;;5044705;28;20054;-77
2023/03/05 06:33:42;;;;;;;;;;;2.30;99.90;;;;;;5042745;28;20255;-77
2023/03/05 06:36:09;;;;;;;;;;;2.30;99.90;;;;;;5021069;28;19956;-77
2023/03/05 06:38:34;;;;;;;;;;;2.20;99.90;;;;;;5042120;28;19935;-77
2023/03/05 06:41:05;;;;;;;;;;;2.30;99.90;;;;;;5045329;28;19928;-77
2023/03/05 06:43:34;;;;;;;;;;;2.40;99.90;;;;;;5043180;28;19979;-77
2023/03/05 06:46:05;;;;;;;;;;;2.40;99.90;;;;;;5041410;28;19974;-76
2023/03/05 06:48:31;;;;;;;;;;;2.30;99.90;;;;;;5058913;28;19920;-77
2023/03/05 06:50:56;;;;;;;;;;;2.40;99.90;;;;;;5063720;28;19925;-77
2023/03/05 06:53:22;;;;;;;;;;;2.40;99.90;;;;;;5068530;28;20034;-76
2023/03/05 06:55:48;;;;;;;;;;;2.30;99.90;;;;;;5068328;28;20397;-77
2023/03/05 06:58:13;;;;;;;;;;;2.30;99.90;;;;;;5048736;28;19921;-77
2023/03/05 07:00:39;;;;;;;;;;;2.40;99.90;;;;;;5066991;28;19921;-76
2023/03/05 07:03:05;;;;;;;;;;;2.30;99.90;;;;;;5050302;28;20485;-77
2023/03/05 07:05:30;;;;;;;;;;;2.40;99.90;;;;;;5032199;28;19928;-77
2023/03/05 07:07:56;;;;;;;;;;;2.50;99.90;;;;;;5068702;28;19920;-77
2023/03/05 07:10:21;;;;;;;;;;;2.40;99.90;;;;;;5066486;28;19928;-77
2023/03/05 07:12:47;;;;;;;;;;;2.50;99.90;;;;;;5033800;28;20013;-76
2023/03/05 07:15:12;;;;;;;;;;;2.50;99.90;;;;;;5050876;28;19916;-76
2023/03/05 07:17:38;;;;;;;;;;;2.50;99.90;;;;;;5049373;28;20382;-77
2023/03/05 07:20:04;;;;;;;;;;;2.60;99.90;;;;;;5065349;28;19925;-77
2023/03/05 07:22:29;;;;;;;;;;;2.50;99.90;;;;;;5049363;28;19923;-77
2023/03/05 07:24:55;;;;;;;;;;;2.60;99.90;;;;;;5067652;28;20371;-77
2023/03/05 07:27:22;;;;;;;;;;;2.70;99.90;;;;;;5051234;28;19934;-76
2023/03/05 07:29:47;;;;;;;;;;;2.60;99.90;;;;;;5067857;28;19935;-77
2023/03/05 07:32:13;;;;;;;;;;;2.70;99.90;;;;;;5032603;28;20466;-76
2023/03/05 07:34:38;;;;;;;;;;;2.70;99.90;;;;;;5046817;28;19974;-77
2023/03/05 07:37:04;;;;;;;;;;;2.70;99.90;;;;;;5048420;28;19928;-77
2023/03/05 07:39:29;;;;;;;;;;;2.90;99.90;;;;;;5033084;28;20393;-78
2023/03/05 07:41:55;;;;;;;;;;;2.90;99.90;;;;;;5065660;28;19935;-77
2023/03/05 07:44:21;;;;;;;;;;;3.00;99.90;;;;;;5067252;28;19967;-77
2023/03/05 07:46:46;;;;;;;;;;;3.00;99.90;;;;;;5063596;28;20490;-77
2023/03/05 07:49:12;;;;;;;;;;;3.10;99.90;;;;;;5040477;28;20558;-77
2023/03/05 07:51:39;;;;;;;;;;;3.20;99.90;;;;;;5029366;28;19920;-77
2023/03/05 07:54:04;;;;;;;;;;;3.20;99.90;;;;;;5042870;28;19921;-77
2023/03/05 07:56:34;;;;;;;;;;;3.30;99.90;;;;;;5063956;28;19928;-77
2023/03/05 07:59:12;;;;;;;;;;;3.40;99.90;;;;;;5044767;28;20486;-77
2023/03/05 08:01:38;;;;;;;;;;;3.50;99.90;;;;;;5044506;28;19974;-77
2023/03/05 08:04:04;;;;;;;;;;;3.50;99.90;;;;;;5062895;28;20363;-77
2023/03/05 08:06:30;;;;;;;;;;;3.70;99.90;;;;;;5063369;28;20007;-77
2023/03/05 08:08:56;;;;;;;;;;;3.70;99.90;;;;;;5047975;28;19951;-77
2023/03/05 08:11:21;;;;;;;;;;;3.80;99.90;;;;;;5061690;28;21958;-76
2023/03/05 08:13:47;;;;;;;;;;;3.90;99.90;;;;;;5044908;28;20023;-77
2023/03/05 08:16:20;;;;;;;;;;;3.90;99.90;;;;;;5049855;28;20484;-76
2023/03/05 08:18:47;;;;;;;;;;;3.90;99.90;;;;;;5060382;28;20394;-75
2023/03/05 08:21:17;;;;;;;;;;;4.00;99.90;;;;;;5045310;28;19951;-76
2023/03/05 08:23:42;;;;;;;;;;;4.20;99.90;;;;;;5046384;28;19979;-76
2023/03/05 08:26:12;;;;;;;;;;;4.30;99.90;;;;;;5045645;28;20405;-77
2023/03/05 08:28:38;;;;;;;;;;;4.40;99.90;;;;;;5061628;28;20415;-77
2023/03/05 08:31:07;;;;;;;;;;;4.40;99.90;;;;;;5029902;28;19924;-76
2023/03/05 08:33:32;;;;;;;;;;;4.60;99.90;;;;;;5062153;28;20382;-76
2023/03/05 08:36:01;;;;;;;;;;;4.60;99.90;;;;;;5042921;28;19932;-77
2023/03/05 08:38:26;;;;;;;;;;;4.70;99.90;;;;;;5060257;28;19943;-76
2023/03/05 08:40:52;;;;;;;;;;;4.80;99.90;;;;;;5061947;28;19923;-76
2023/03/05 08:43:18;;;;;;;;;;;4.80;99.90;;;;;;5035791;28;19920;-76
2023/03/05 08:45:43;;;;;;;;;;;4.90;99.90;;;;;;5045469;28;19931;-76
2023/03/05 08:48:09;;;;;;;;;;;5.00;99.90;;;;;;5053724;28;20260;-77
2023/03/05 08:50:35;;;;;;;;;;;5.00;99.90;;;;;;5058108;28;20019;-76
2023/03/05 08:53:01;;;;;;;;;;;5.00;99.90;;;;;;5034640;28;20375;-76
2023/03/05 08:55:27;;;;;;;;;;;5.10;99.90;;;;;;5159046;23;19921;-70
2023/03/05 08:57:55;;;;;;;;;;;5.10;99.90;;;;;;5019026;28;19947;-71
2023/03/05 09:00:24;;;;;;;;;;;5.20;99.90;;;;;;5002128;28;20489;-71
2023/03/05 09:02:50;;;;;;;;;;;5.20;99.90;;;;;;5025334;28;19975;-71
2023/03/05 09:05:15;;;;;;;;;;;5.30;99.90;;;;;;5006163;28;20426;-72
2023/03/05 09:07:41;;;;;;;;;;;5.50;99.90;;;;;;5006202;28;19929;-71
2023/03/05 09:10:10;;;;;;;;;;;5.50;99.90;;;;;;5020126;28;19955;-71
2023/03/05 09:12:36;;;;;;;;;;;5.40;99.90;;;;;;5023949;28;19924;-71
2023/03/05 09:15:02;;;;;;;;;;;5.30;99.90;;;;;;5022717;28;19925;-72
2023/03/05 09:17:31;;;;;;;;;;;5.30;99.90;;;;;;5020892;28;20447;-71
2023/03/05 09:19:57;;;;;;;;;;;5.30;99.90;;;;;;5039010;28;19940;-71
2023/03/05 09:22:22;;;;;;;;;;;5.30;99.90;;;;;;5041153;28;19921;-71
2023/03/05 09:24:48;;;;;;;;;;;5.30;99.90;;;;;;5043809;28;19948;-71
2023/03/05 09:27:13;;;;;;;;;;;5.30;99.90;;;;;;5007460;28;20303;-72
2023/03/05 09:29:39;;;;;;;;;;;5.40;99.90;;;;;;5006953;28;19925;-71
2023/03/05 09:32:05;;;;;;;;;;;5.40;99.90;;;;;;5026983;28;19956;-72
2023/03/05 09:34:30;;;;;;;;;;;5.50;99.90;;;;;;5023265;28;19924;-71
2023/03/05 09:36:56;;;;;;;;;;;5.60;99.90;;;;;;4989799;28;20300;-72
2023/03/05 09:39:21;;;;;;;;;;;5.70;99.90;;;;;;5035557;28;19991;-77
2023/03/05 09:41:53;;;;;;;;;;;5.70;99.90;;;;;;5023349;28;19933;-73
2023/03/05 09:44:27;;;;;;;;;;;5.80;99.90;;;;;;5025088;28;19922;-72
2023/03/05 09:47:06;;;;;;;;;;;6.00;99.90;;;;;;5024664;28;19921;-72
2023/03/05 09:49:41;;;;;;;;;;;6.10;99.90;;;;;;5010629;28;19971;-72
2023/03/05 09:52:20;;;;;;;;;;;6.10;99.90;;;;;;5022003;28;20231;-72
2023/03/05 09:54:48;;;;;;;;;;;6.00;99.90;;;;;;4988214;28;20316;-73
2023/03/05 09:57:21;;;;;;;;;;;5.90;99.90;;;;;;5005271;28;19936;-73
2023/03/05 09:59:49;;;;;;;;;;;5.70;99.90;;;;;;5023163;28;19929;-73
2023/03/05 10:02:21;;;;;;;;;;;5.70;99.90;;;;;;5006408;28;20101;-72
2023/03/05 10:04:49;;;;;;;;;;;5.70;99.90;;;;;;5021109;28;19925;-73
2023/03/05 10:07:27;;;;;;;;;;;5.80;99.90;;;;;;5023819;28;19929;-73
2023/03/05 10:10:16;;;;;;;;;;;5.90;99.90;;;;;;5024413;28;20433;-72
2023/03/05 10:12:47;;;;;;;;;;;6.00;99.90;;;;;;5024666;28;19929;-72
2023/03/05 10:15:23;;;;;;;;;;;6.00;99.90;;;;;;5019565;28;20396;-72
2023/03/05 10:18:07;;;;;;;;;;;6.10;99.90;;;;;;5005155;28;19971;-72
2023/03/05 10:20:40;;;;;;;;;;;6.20;99.90;;;;;;5022304;28;20027;-72
2023/03/05 10:23:09;;;;;;;;;;;6.30;99.90;;;;;;5013775;28;20019;-74
2023/03/05 10:25:53;;;;;;;;;;;6.40;99.90;;;;;;5019541;28;20026;-72
2023/03/05 10:28:24;;;;;;;;;;;6.50;99.90;;;;;;5022159;28;20105;-72
2023/03/05 10:31:02;;;;;;;;;;;6.60;99.90;;;;;;5004588;28;20000;-71
2023/03/05 10:33:34;;;;;;;;;;;6.70;99.90;;;;;;5026214;28;19921;-72
2023/03/05 10:36:02;;;;;;;;;;;6.60;99.90;;;;;;5004215;28;20288;-72
2023/03/05 10:38:48;;;;;;;;;;;6.40;99.90;;;;;;5006154;28;19929;-72
2023/03/05 10:41:19;;;;;;;;;;;6.50;99.90;;;;;;5024904;28;19928;-73
2023/03/05 10:43:56;;;;;;;;;;;6.60;99.90;;;;;;5006448;28;19925;-72
2023/03/05 10:46:24;;;;;;;;;;;6.70;99.90;;;;;;5005527;28;19921;-72
2023/03/05 10:49:00;;;;;;;;;;;6.90;99.90;;;;;;5005910;28;19991;-71
2023/03/05 10:51:44;;;;;;;;;;;7.00;99.90;;;;;;5025893;28;19948;-71
2023/03/05 10:54:24;;;;;;;;;;;7.00;99.90;;;;;;5004230;28;20379;-73
2023/03/05 10:56:50;;;;;;;;;;;7.00;99.90;;;;;;5023069;28;20011;-72
2023/03/05 10:59:15;;;;;;;;;;;7.00;99.90;;;;;;5006958;28;20059;-72
2023/03/05 11:01:41;;;;;;;;;;;7.00;99.90;;;;;;5001313;28;20485;-72
2023/03/05 11:04:07;;;;;;;;;;;7.00;99.90;;;;;;5023941;28;20347;-73
2023/03/05 11:06:36;;;;;;;;;;;7.00;99.90;;;;;;4989620;28;20785;-73
2023/03/05 11:09:15;;;;;;;;;;;7.00;99.90;;;;;;5025011;28;19929;-76
2023/03/05 11:11:40;;;;;;;;;;;7.10;99.90;;;;;;5039068;28;19937;-75
2023/03/05 11:14:20;;;;;;;;;;;7.20;99.90;;;;;;5023156;28;20351;-76
2023/03/05 11:16:47;;;;;;;;;;;7.30;99.90;;;;;;5023388;28;20288;-77
2023/03/05 11:19:12;;;;;;;;;;;7.40;99.90;;;;;;5025269;28;19925;-78
2023/03/05 11:21:38;;;;;;;;;;;7.40;99.90;;;;;;4990819;28;19921;-77
2023/03/05 11:24:04;;;;;;;;;;;7.40;99.90;;;;;;5016052;28;19933;-77
2023/03/05 11:26:29;;;;;;;;;;;7.50;99.90;;;;;;5017721;28;20364;-77
2023/03/05 11:28:57;;;;;;;;;;;7.60;99.90;;;;;;5007255;28;20332;-77
2023/03/05 11:31:24;;;;;;;;;;;7.60;99.90;;;;;;5005287;28;19928;-77
2023/03/05 11:33:52;;;;;;;;;;;7.50;99.90;;;;;;5006262;28;19925;-78
2023/03/05 11:36:22;;;;;;;;;;;7.40;99.90;;;;;;5004864;28;19917;-78
2023/03/05 11:38:53;;;;;;;;;;;7.30;99.90;;;;;;5015723;28;19929;-77
2023/03/05 11:41:24;;;;;;;;;;;7.30;99.90;;;;;;5028618;28;19982;-78
2023/03/05 11:43:52;;;;;;;;;;;7.20;99.90;;;;;;5027520;28;20007;-77
2023/03/05 11:46:17;;;;;;;;;;;7.30;99.90;;;;;;5025610;28;19933;-78
2023/03/05 11:48:44;;;;;;;;;;;7.40;99.90;;;;;;5028006;28;19921;-78
2023/03/05 11:51:15;;;;;;;;;;;7.50;99.90;;;;;;5028467;28;19971;-78
2023/03/05 11:53:42;;;;;;;;;;;7.40;99.90;;;;;;5039428;28;20273;-77
2023/03/05 11:56:19;;;;;;;;;;;7.20;99.90;;;;;;5025096;28;19983;-77
2023/03/05 11:58:50;;;;;;;;;;;7.10;99.90;;;;;;5027919;28;20116;-77
2023/03/05 12:01:17;;;;;;;;;;;7.00;99.90;;;;;;5040180;28;19924;-78
2023/03/05 12:03:43;;;;;;;;;;;6.90;99.90;;;;;;5006187;28;19921;-78
2023/03/05 12:06:09;;;;;;;;;;;6.90;99.90;;;;;;5026778;28;19967;-77
2023/03/05 12:08:36;;;;;;;;;;;7.00;99.90;;;;;;5019174;28;20355;-77
2023/03/05 12:11:06;;;;;;;;;;;7.00;99.90;;;;;;5007049;28;20022;-77
2023/03/05 12:13:43;;;;;;;;;;;7.00;99.90;;;;;;5027040;28;19936;-79
2023/03/05 12:16:11;;;;;;;;;;;7.00;99.90;;;;;;5003534;28;19996;-78
2023/03/05 12:18:48;;;;;;;;;;;6.90;99.90;;;;;;5028162;28;19929;-77
2023/03/05 12:21:20;;;;;;;;;;;6.80;99.90;;;;;;5026101;28;19921;-77
2023/03/05 12:23:47;;;;;;;;;;;6.70;99.90;;;;;;5010528;28;20043;-75
2023/03/05 12:26:13;;;;;;;;;;;6.70;99.90;;;;;;5028515;28;19940;-76
2023/03/05 12:28:44;;;;;;;;;;;6.60;99.90;;;;;;5011110;28;19925;-77
2023/03/05 12:31:25;;;;;;;;;;;6.60;99.90;;;;;;5028047;28;20295;-76
2023/03/05 12:33:50;;;;;;;;;;;6.60;99.90;;;;;;5028412;28;19920;-77
2023/03/05 12:36:16;;;;;;;;;;;6.60;99.90;;;;;;4982278;28;19921;-77
2023/03/05 12:38:42;;;;;;;;;;;6.50;99.90;;;;;;5018786;28;19925;-77
2023/03/05 12:41:22;;;;;;;;;;;6.60;99.90;;;;;;5028462;28;19982;-77
2023/03/05 12:44:06;;;;;;;;;;;6.50;99.90;;;;;;4994055;28;19932;-78
2023/03/05 12:46:39;;;;;;;;;;;6.60;99.90;;;;;;5027613;28;19929;-77
2023/03/05 12:49:16;;;;;;;;;;;6.70;99.90;;;;;;5027075;28;19936;-81
2023/03/05 12:51:42;;;;;;;;;;;6.80;99.90;;;;;;5010458;28;19921;-81
2023/03/05 12:54:17;;;;;;;;;;;7.00;99.90;;;;;;5029331;28;20375;-81
2023/03/05 12:56:45;;;;;;;;;;;7.10;99.90;;;;;;5027541;28;20035;-83
2023/03/05 12:59:11;;;;;;;;;;;7.20;99.90;;;;;;5011052;28;19921;-83
2023/03/05 13:01:43;;;;;;;;;;;7.30;99.90;;;;;;5010271;28;20410;-83
2023/03/05 13:04:16;;;;;;;;;;;7.30;99.90;;;;;;5025024;28;19921;-82
2023/03/05 13:06:41;;;;;;;;;;;7.30;99.90;;;;;;5007862;28;19924;-81
2023/03/05 13:09:15;;;;;;;;;;;7.30;99.90;;;;;;5026668;28;20367;-80
2023/03/05 13:11:41;;;;;;;;;;;7.30;99.90;;;;;;5005723;28;19921;-81
2023/03/05 13:14:26;;;;;;;;;;;7.20;99.90;;;;;;5006224;28;19925;-81
2023/03/05 13:16:51;;;;;;;;;;;7.10;99.90;;;;;;5026329;28;19921;-82
2023/03/05 13:19:17;;;;;;;;;;;7.10;99.90;;;;;;5007667;28;19921;-81
2023/03/05 13:21:43;;;;;;;;;;;7.30;99.90;;;;;;5006936;28;20254;-81
2023/03/05 13:24:16;;;;;;;;;;;7.50;99.90;;;;;;5020920;28;20407;-80
2023/03/05 13:26:41;;;;;;;;;;;7.60;99.90;;;;;;5009153;28;20014;-83
2023/03/05 13:29:17;;;;;;;;;;;7.60;99.90;;;;;;5023329;28;19959;-84
2023/03/05 13:31:51;;;;;;;;;;;7.60;99.90;;;;;;5014371;28;19924;-83
2023/03/05 13:34:21;;;;;;;;;;;7.60;99.90;;;;;;5008021;28;19921;-82
2023/03/05 13:36:53;;;;;;;;;;;7.50;99.90;;;;;;5006687;28;19921;-82
2023/03/05 13:39:20;;;;;;;;;;;7.40;99.90;;;;;;5025027;28;19924;-82
2023/03/05 13:42:06;;;;;;;;;;;7.40;99.90;;;;;;5023583;28;20016;-82
2023/03/05 13:44:33;;;;;;;;;;;7.40;99.90;;;;;;5023443;28;19929;-83
2023/03/05 13:47:16;;;;;;;;;;;7.50;99.90;;;;;;5025012;28;19966;-82
2023/03/05 13:49:42;;;;;;;;;;;7.60;99.90;;;;;;5031937;28;20043;-82
2023/03/05 13:52:09;;;;;;;;;;;7.60;99.90;;;;;;5024352;28;20003;-81
2023/03/05 13:54:34;;;;;;;;;;;7.60;99.90;;;;;;5008387;28;19921;-81
2023/03/05 13:57:03;;;;;;;;;;;7.50;99.90;;;;;;5023595;28;20023;-79
2023/03/05 13:59:32;;;;;;;;;;;7.50;99.90;;;;;;5019316;28;19928;-80
2023/03/05 14:02:18;;;;;;;;;;;7.40;99.90;;;;;;5019432;28;19933;-80
2023/03/05 14:04:45;;;;;;;;;;;7.20;99.90;;;;;;5018871;28;20011;-80
2023/03/05 14:07:19;;;;;;;;;;;7.10;99.90;;;;;;5005847;28;19940;-81
2023/03/05 14:09:49;;;;;;;;;;;7.00;99.90;;;;;;5021839;28;20004;-82
2023/03/05 14:12:29;;;;;;;;;;;6.90;99.90;;;;;;5024375;28;20070;-83
2023/03/05 14:14:55;;;;;;;;;;;6.80;99.90;;;;;;5032872;28;19929;-81
2023/03/05 14:17:22;;;;;;;;;;;6.80;99.90;;;;;;5023434;28;19959;-81
2023/03/05 14:19:48;;;;;;;;;;;6.80;99.90;;;;;;5007940;28;20368;-81
2023/03/05 14:22:34;;;;;;;;;;;6.80;99.90;;;;;;5024839;28;19964;-81
2023/03/05 14:25:00;;;;;;;;;;;6.80;99.90;;;;;;5024711;28;19928;-81
2023/03/05 14:27:27;;;;;;;;;;;6.90;99.90;;;;;;5026060;28;19929;-81
2023/03/05 14:29:52;;;;;;;;;;;6.90;99.90;;;;;;5007043;28;20374;-80
2023/03/05 14:32:30;;;;;;;;;;;7.00;99.90;;;;;;5006572;28;20012;-81
2023/03/05 14:34:57;;;;;;;;;;;7.10;99.90;;;;;;5025573;28;19925;-81
2023/03/05 14:37:37;;;;;;;;;;;7.30;99.90;;;;;;5024557;28;19921;-83